Squid User Access Reports
Period: 2019 Jun 21—2019 Ago 10
User: 192.168.1.31
Sort: bytes, reverse
User report
ACCESSED SITECONNECTBYTES%BYTESIN-CACHE-OUTELAPSED TIMEMILLISEC%TIME
Tdownload.windowsupdate.com773201.38M93,24%0,02%99,98%00:02:20140,16854,16%
Twww.jogosdogoogle.com958.98M4,16%0,08%99,92%00:00:3636,46114,09%
Twww.caixa.gov.br602.32M1,08%0,00%100,00%00:00:077,1492,76%
Tocsp.digicert.com951571.55K0,26%0,00%100,00%00:00:011,1340,44%
Twww.download.windowsupdate.com12410.71K0,19%0,00%100,00%00:00:011,8580,72%
Twww.msftncsi.com506301.57K0,14%0,00%100,00%00:00:055,3072,05%
Tcrl3.digicert.com384230.78K0,11%0,00%100,00%00:00:006550,25%
Tsf.symcd.com316189.91K0,09%0,00%100,00%00:00:033,0801,19%
Tmscrl.microsoft.com4188.72K0,09%100,00%0,00%00:00:002970,11%
Tcrl4.digicert.com309185.70K0,09%0,00%100,00%00:00:006670,26%
Tsv.symcd.com244146.64K0,07%0,00%100,00%00:00:011,3620,53%
Twww7.caixa.gov.br8141.31K0,07%100,00%0,00%00:00:0060,00%
Tplatform.twitter.com2120.89K0,06%0,00%100,00%00:00:001010,04%
Tgo.microsoft.com192108.81K0,05%0,00%100,00%00:00:077,9133,06%
Tds.download.windowsupdate.com13597.34K0,05%40,96%59,04%00:00:033,1251,21%
Tsf.symcb.com15593.15K0,04%0,00%100,00%00:00:022,3250,90%
Twww.microsoft.com10358.19K0,03%1,94%98,06%00:00:1010,2943,98%
Tsv.symcb.com7947.47K0,02%0,00%100,00%00:00:007830,30%
Tacroipm2.adobe.com7645.67K0,02%0,00%100,00%00:00:006720,26%
Tclienttemplates.content.office.net5734.25K0,02%0,00%100,00%00:00:006730,26%
T2.gravatar.com3822.83K0,01%0,00%100,00%00:00:00670,03%
Twww.google.com2620.57K0,01%0,00%100,00%00:00:099,3053,60%
T1.gravatar.com3219.23K0,01%0,00%100,00%00:00:001280,05%
Twww.msn.com3219.23K0,01%0,00%100,00%00:00:009240,36%
Tnoticias.br.msn.com3219.23K0,01%0,00%100,00%00:00:1313,1325,07%
Tstatus.geotrust.com3018.03K0,01%0,00%100,00%00:00:003880,15%
Tcdp.geotrust.com3018.03K0,01%0,00%100,00%00:00:003770,15%
Tpagead2.googlesyndication.com2917.42K0,01%0,00%100,00%00:00:001040,04%
Ts2.symcb.com715.68K0,01%0,00%100,00%00:00:022,1400,83%
Tcnpj.info213.75K0,01%11,09%88,91%00:00:003390,13%
Tocsp.verisign.com613.44K0,01%0,00%100,00%00:00:011,3560,52%
T0.gravatar.com2213.22K0,01%0,00%100,00%00:00:00790,03%
Tth.symcd.com2012.02K0,01%0,00%100,00%00:00:002170,08%
Tocsp.thawte.com2012.02K0,01%0,00%100,00%00:00:001920,07%
Tcrl.microsoft.com911.26K0,01%0,00%100,00%00:00:003330,13%
Tajax.googleapis.com159.01K0,00%0,00%100,00%00:00:00740,03%
Tocsp.msocsp.com116.61K0,00%0,00%100,00%00:00:001270,05%
Tredirector.gvt1.com206.40K0,00%0,00%100,00%00:00:001860,07%
Tth.symcb.com106.01K0,00%0,00%100,00%00:00:001940,07%
Tcrl.thawte.com106.01K0,00%0,00%100,00%00:00:001390,05%
Trme.reamp.com.br84.80K0,00%0,00%100,00%00:00:002000,08%
Tkawasakibrasil.com.br53.00K0,00%0,00%100,00%00:00:00230,01%
Tajpvv.track4ref.com53.00K0,00%0,00%100,00%00:00:00660,03%
Tocsp.pki.goog42.40K0,00%0,00%100,00%00:00:00220,01%
Tjornaldamealhada.com42.40K0,00%0,00%100,00%00:00:00440,02%
Ttest.gomifer.com31.80K0,00%0,00%100,00%00:00:001930,07%
Tmedia.jornaldamealhada.com31.80K0,00%0,00%100,00%00:00:001710,07%
Tmediadownloader23.gq31.80K0,00%0,00%100,00%00:00:004540,18%
Twww.vwco.com.br21.44K0,00%0,00%100,00%00:00:006140,24%
Twww.walldesk.com.br21.20K0,00%0,00%100,00%00:00:002740,11%
Twww.kawasakiconsorcios.com.br21.20K0,00%0,00%100,00%00:00:00630,02%
Twww.bing.com21.20K0,00%0,00%100,00%00:00:00210,01%
Tgo.ad2upapp.com21.20K0,00%0,00%100,00%00:00:00300,01%
Tgloboesporte.globo.com21.20K0,00%0,00%100,00%00:00:00220,01%
Tcrt.sectigo.com21.20K0,00%0,00%100,00%00:00:00200,01%
Tcrl.pki.goog21.20K0,00%0,00%100,00%00:00:00210,01%
Tchrom-update.online21.20K0,00%0,00%100,00%00:00:004290,17%
Tcentral.certto.com.br21.20K0,00%0,00%100,00%00:00:0020,00%
Tadexchangegate.com21.20K0,00%0,00%100,00%00:00:001610,06%
Tcsi.gstatic.com29220,00%0,00%100,00%00:00:009810,38%
Twww.google.com.br17430,00%0,00%100,00%00:00:001150,04%
Twww.gstatic.com36960,00%0,00%100,00%00:00:00940,04%
Tew.caixa.gov.br26300,00%0,00%100,00%00:00:001490,06%
Twww.uniplandf.edu.br16010,00%0,00%100,00%00:00:00360,01%
Twww.orcapas.com.br16010,00%0,00%100,00%00:00:00290,01%
Twww.certto.com.br16010,00%0,00%100,00%00:00:0010,00%
Ttags.t.tailtarget.com16010,00%0,00%100,00%00:00:0010,00%
Ts1-mirror3.wallpapic.com16010,00%0,00%100,00%00:00:003100,12%
Trarlab.com16010,00%0,00%100,00%00:00:00200,01%
Timages.newindianexpress.com16010,00%0,00%100,00%00:00:001520,06%
Teueapsicologia.com.br16010,00%0,00%100,00%00:00:00240,01%
Td.tailtarget.com16010,00%0,00%100,00%00:00:0010,00%
Tcolorindonuvens.com16010,00%0,00%100,00%00:00:002160,08%
Tcdn.odc.officeapps.live.com16010,00%0,00%100,00%00:00:00210,01%
Taz416426.vo.msecnd.net16010,00%0,00%100,00%00:00:0010,00%
TOTAL4.93K215.99M0,25%0,20%99,80%00:04:18258,8120,00%
AVERAGE0647.76M14:36:1352,573,7500,75%
Generated by sarg-2.3.10 Apr-12-2015 on Ago/10/2019 23:59